Decoded Metar for KSYR (SYRACUSE in NY, USA) (IATA:SYR) | Meteo·Mobile Aviation Weather
aviador You're here:

KSYR Decoded Metar

SYRACUSE in NY, USA
Report Time2018-09-26 03:54:00
UTC Time2018-09-26 04:58:48
Flight Rules mvfr MVFR
Wind160° at 08 kt
W.Decomp.*RWY 15: 7.4 kt HW 3.1 kt RCW
RWY 10: 2.3 kt HW 7.7 kt RCW
W.Rank160° ranks 25
Current wind is below 160° avg. (8.1)
Visibility9999 m
Phenomena:N/A
Clouds:Broken 022 Hf
Broken 090 Hf
Overcast 260 Hf
Ceiling2,200 ft
Temp19°C (ISA +5)
Dew Point19°C (100% RH)
QNH1016 hPa
Density Alt1,175 ft
Elevation417 ft
Report Wrong Elevation
Raw Report
KSYR 260354Z 16008KT 10SM BKN022 BKN090 OVC260 19/19 A2999 RMK AO2
SLP153 T01890189 $=

Extra information for KSYR:More info

Metar Taf Metar & Taf Last 4 Metars F.Rules Stats Wind Profile Meteogram Temp Stats Airport Information Weather charts Add Link Nearby VenuesMetar ALERT Operation Metar Decoded Social comments

AIRNAV info for KSYR